createdAt,value
2022-11-19T00:02:17.069Z,7.00
2022-11-19T00:04:45.233Z,1.57
2022-11-19T00:07:13.168Z,2.27
2022-11-19T00:09:42.369Z,1.87
2022-11-19T00:12:28.705Z,1.97
2022-11-19T00:14:56.628Z,1.70
2022-11-19T00:17:24.822Z,1.77
2022-11-19T00:19:52.658Z,1.17
2022-11-19T00:22:20.484Z,1.33
2022-11-19T00:24:49.696Z,1.20
2022-11-19T00:27:17.574Z,1.23
2022-11-19T00:29:45.441Z,1.07
2022-11-19T00:32:13.292Z,2.13
2022-11-19T00:34:41.151Z,0.83
2022-11-19T00:37:09.380Z,2.13
2022-11-19T00:39:37.228Z,3.53
2022-11-19T00:42:06.729Z,2.70
2022-11-19T00:44:37.482Z,1.07
2022-11-19T00:47:05.920Z,2.50
2022-11-19T00:49:33.846Z,1.33
2022-11-19T00:52:01.703Z,1.47
2022-11-19T00:54:29.580Z,1.47
2022-11-19T00:56:57.427Z,2.13
2022-11-19T00:59:27.783Z,1.70
2022-11-19T01:01:55.664Z,2.13
2022-11-19T01:04:23.496Z,4.23
2022-11-19T01:06:51.374Z,4.47
2022-11-19T01:09:19.809Z,2.03
2022-11-19T01:11:47.865Z,2.03
2022-11-19T01:14:15.774Z,2.37
2022-11-19T01:16:44.995Z,2.97
2022-11-19T01:19:16.196Z,3.50
2022-11-19T01:21:44.153Z,1.90
2022-11-19T01:24:12.037Z,2.53
2022-11-19T01:26:44.425Z,2.03
2022-11-19T01:29:14.119Z,3.10
2022-11-19T01:31:42.037Z,1.87
2022-11-19T01:34:11.217Z,1.67
2022-11-19T01:36:39.179Z,2.03
2022-11-19T01:39:07.075Z,1.67
2022-11-19T01:41:34.999Z,3.03
2022-11-19T01:44:04.508Z,1.33
2022-11-19T01:46:34.800Z,1.77
2022-11-19T01:49:05.313Z,1.63
2022-11-19T01:51:38.993Z,1.83
2022-11-19T01:54:13.604Z,2.60
2022-11-19T01:56:41.557Z,2.33
2022-11-19T01:59:12.339Z,2.37
2022-11-19T02:01:40.306Z,2.47
2022-11-19T02:04:08.912Z,0.80
2022-11-19T02:06:39.794Z,2.67
2022-11-19T02:09:07.717Z,1.47
2022-11-19T02:11:55.853Z,1.67
2022-11-19T02:14:58.787Z,1.67
2022-11-19T02:17:39.838Z,1.50
2022-11-19T02:20:32.079Z,2.67
2022-11-19T02:23:17.525Z,2.43
2022-11-19T02:26:04.070Z,1.20
2022-11-19T02:28:36.859Z,2.37
2022-11-19T02:31:11.788Z,1.40
2022-11-19T02:33:49.708Z,1.73
2022-11-19T02:36:22.986Z,3.83
2022-11-19T02:38:57.325Z,2.40
2022-11-19T02:41:36.983Z,1.57
2022-11-19T02:44:43.195Z,3.50
2022-11-19T02:47:17.172Z,1.13
2022-11-19T02:49:46.047Z,2.27
2022-11-19T02:52:15.609Z,1.53
2022-11-19T02:54:43.686Z,1.53
2022-11-19T02:57:13.223Z,2.43
2022-11-19T03:00:15.676Z,1.73
2022-11-19T03:03:06.507Z,2.30
2022-11-19T03:05:38.701Z,2.43
2022-11-19T03:08:07.337Z,2.70
2022-11-19T03:10:43.502Z,1.10
2022-11-19T03:13:35.631Z,1.77
2022-11-19T03:16:25.085Z,1.10
2022-11-19T03:19:00.551Z,1.33
2022-11-19T03:21:34.296Z,2.87
2022-11-19T03:24:06.268Z,1.83
2022-11-19T03:26:37.026Z,2.40
2022-11-19T03:29:08.766Z,1.87
2022-11-19T03:31:39.216Z,1.80
2022-11-19T03:34:14.300Z,4.40
2022-11-19T03:36:43.832Z,2.13
2022-11-19T03:39:14.932Z,3.00
2022-11-19T03:41:45.045Z,3.43
2022-11-19T03:44:16.297Z,2.53
2022-11-19T03:46:47.646Z,2.57
2022-11-19T03:49:20.084Z,2.10
2022-11-19T03:51:52.561Z,1.40
2022-11-19T03:54:20.638Z,2.20
2022-11-19T03:56:50.237Z,1.40
2022-11-19T03:59:18.629Z,1.73
2022-11-19T04:01:49.251Z,1.37
2022-11-19T04:04:32.798Z,2.33
2022-11-19T04:07:00.713Z,3.00
2022-11-19T04:09:28.563Z,1.20
2022-11-19T04:11:56.409Z,2.73
2022-11-19T04:14:24.272Z,1.30
2022-11-19T04:16:52.138Z,6.63
2022-11-19T04:19:21.751Z,1.87
2022-11-19T04:21:50.148Z,2.30
2022-11-19T04:24:18.366Z,2.10
2022-11-19T04:26:46.274Z,1.73
2022-11-19T04:29:14.205Z,1.80
2022-11-19T04:31:42.332Z,2.23
2022-11-19T04:34:10.517Z,1.27
2022-11-19T04:36:42.097Z,1.90
2022-11-19T04:39:12.343Z,1.80
2022-11-19T04:41:41.198Z,2.33
2022-11-19T04:44:09.107Z,1.77
2022-11-19T04:46:36.979Z,1.97
2022-11-19T04:49:05.258Z,1.30
2022-11-19T04:51:33.099Z,4.00
2022-11-19T04:54:02.384Z,3.30
2022-11-19T04:56:30.211Z,1.50
2022-11-19T04:58:58.082Z,1.40
2022-11-19T05:01:25.969Z,1.43
2022-11-19T05:03:53.860Z,1.33
2022-11-19T05:06:21.755Z,2.43
2022-11-19T05:08:49.637Z,1.40
2022-11-19T05:11:19.115Z,1.53
2022-11-19T05:13:47.179Z,3.00
2022-11-19T05:16:15.037Z,2.40
2022-11-19T05:18:42.927Z,2.60
2022-11-19T05:21:10.813Z,1.93
2022-11-19T05:23:38.686Z,1.77
2022-11-19T05:26:06.801Z,1.60
2022-11-19T05:28:39.928Z,2.93
2022-11-19T05:31:08.423Z,2.60
2022-11-19T05:33:36.368Z,1.97
2022-11-19T05:36:04.583Z,2.30
2022-11-19T05:38:32.419Z,2.27
2022-11-19T05:41:00.279Z,2.50
2022-11-19T05:43:28.141Z,2.00
2022-11-19T05:46:00.734Z,2.50
2022-11-19T05:48:28.799Z,1.77
2022-11-19T05:50:56.811Z,3.40
2022-11-19T05:53:24.746Z,4.10
2022-11-19T05:55:52.664Z,2.83
2022-11-19T05:58:20.662Z,1.57
2022-11-19T06:00:49.066Z,2.53
2022-11-19T06:03:18.321Z,1.67
2022-11-19T06:05:46.230Z,1.20
2022-11-19T06:08:14.084Z,1.67
2022-11-19T06:10:41.945Z,3.13
2022-11-19T06:13:09.824Z,2.83
2022-11-19T06:15:37.781Z,2.03
2022-11-19T06:18:05.892Z,2.97
2022-11-19T06:20:35.103Z,1.70
2022-11-19T06:23:03.089Z,3.97
2022-11-19T06:25:30.972Z,1.80
2022-11-19T06:27:58.858Z,1.83
2022-11-19T06:30:26.685Z,2.17
2022-11-19T06:32:54.608Z,1.80
2022-11-19T06:35:22.437Z,1.93
2022-11-19T06:37:51.650Z,4.67
2022-11-19T06:40:19.606Z,2.73
2022-11-19T06:42:50.927Z,2.27
2022-11-19T06:45:19.279Z,3.10
2022-11-19T06:47:48.873Z,4.63
2022-11-19T06:50:18.020Z,2.37
2022-11-19T06:52:46.106Z,1.87
2022-11-19T06:55:15.580Z,4.20
2022-11-19T06:57:43.506Z,2.37
2022-11-19T07:00:12.871Z,1.63
2022-11-19T07:02:40.979Z,2.43
2022-11-19T07:05:09.467Z,2.00
2022-11-19T07:07:37.392Z,2.07
2022-11-19T07:10:05.816Z,2.40
2022-11-19T07:12:35.007Z,2.23
2022-11-19T07:15:04.742Z,3.50
2022-11-19T07:17:33.023Z,1.90
2022-11-19T07:20:00.905Z,3.23
2022-11-19T07:22:28.881Z,2.40
2022-11-19T07:24:56.776Z,1.50
2022-11-19T07:27:24.649Z,3.27
2022-11-19T07:29:53.834Z,1.73
2022-11-19T07:32:22.212Z,2.70
2022-11-19T07:34:50.209Z,3.37
2022-11-19T07:37:18.515Z,2.77
2022-11-19T07:39:46.892Z,2.63
2022-11-19T07:42:28.742Z,1.97
2022-11-19T07:44:57.960Z,2.20
2022-11-19T07:47:25.783Z,2.83
2022-11-19T07:49:54.214Z,2.47
2022-11-19T07:52:22.344Z,2.40
2022-11-19T07:54:50.214Z,2.77
2022-11-19T07:57:18.120Z,2.97
2022-11-19T07:59:45.972Z,2.90
2022-11-19T08:02:15.437Z,3.17
2022-11-19T08:04:43.362Z,5.73
2022-11-19T08:07:11.291Z,4.93
2022-11-19T08:09:39.190Z,4.03
2022-11-19T08:12:07.397Z,3.97
2022-11-19T08:14:35.293Z,3.63
2022-11-19T08:17:20.927Z,5.20
2022-11-19T08:19:50.154Z,3.40
2022-11-19T08:22:18.096Z,2.63
2022-11-19T08:24:45.957Z,3.97
2022-11-19T08:27:13.906Z,3.20
2022-11-19T08:29:41.813Z,2.43
2022-11-19T08:32:09.746Z,3.27
2022-11-19T08:34:37.575Z,4.77
2022-11-19T08:37:07.075Z,2.63
2022-11-19T08:39:34.975Z,3.50
2022-11-19T08:42:20.116Z,3.33
2022-11-19T08:44:47.942Z,4.33
2022-11-19T08:47:15.803Z,5.20
2022-11-19T08:49:43.636Z,4.03
2022-11-19T08:52:12.792Z,3.27
2022-11-19T08:54:40.738Z,2.33
2022-11-19T08:57:08.551Z,3.70
2022-11-19T08:59:36.395Z,2.37
2022-11-19T09:02:04.275Z,2.00
2022-11-19T09:04:32.165Z,7.17
2022-11-19T09:07:00.090Z,2.60
2022-11-19T09:09:29.405Z,1.83
2022-11-19T09:11:57.269Z,2.37
2022-11-19T09:14:25.104Z,2.67
2022-11-19T09:16:52.960Z,2.80
2022-11-19T09:19:20.931Z,2.23
2022-11-19T09:21:49.333Z,1.60
2022-11-19T09:24:17.430Z,1.90
2022-11-19T09:26:52.493Z,2.10
2022-11-19T09:29:23.596Z,2.03
2022-11-19T09:31:51.500Z,1.60
2022-11-19T09:34:19.656Z,2.80
2022-11-19T09:36:47.771Z,2.03
2022-11-19T09:39:15.886Z,2.53
2022-11-19T09:41:51.148Z,1.83
2022-11-19T09:44:41.306Z,4.87
2022-11-19T09:47:21.631Z,1.63
2022-11-19T09:50:12.599Z,1.57
2022-11-19T09:52:45.575Z,1.47
2022-11-19T09:55:19.236Z,1.07
2022-11-19T09:57:51.713Z,3.13
2022-11-19T10:00:22.137Z,1.40
2022-11-19T10:02:50.621Z,1.40
2022-11-19T10:05:28.388Z,1.17
2022-11-19T10:08:03.173Z,3.40
2022-11-19T10:10:40.851Z,2.47
2022-11-19T10:13:36.662Z,1.67
2022-11-19T10:16:23.309Z,1.20
2022-11-19T10:18:58.683Z,0.80
2022-11-19T10:21:31.480Z,1.97
2022-11-19T10:24:09.311Z,2.50
2022-11-19T10:26:40.558Z,2.00
2022-11-19T10:29:16.186Z,1.20
2022-11-19T10:31:47.201Z,3.10
2022-11-19T10:34:23.941Z,2.00
2022-11-19T10:36:57.440Z,1.57
2022-11-19T10:39:32.338Z,1.10
2022-11-19T10:42:09.840Z,1.70
2022-11-19T10:44:43.455Z,0.80
2022-11-19T10:47:18.497Z,3.43
2022-11-19T10:49:47.976Z,1.80
2022-11-19T10:52:23.654Z,2.13
2022-11-19T10:54:54.789Z,1.87
2022-11-19T10:57:24.115Z,1.57
2022-11-19T10:59:54.716Z,1.83
2022-11-19T11:02:32.579Z,2.90
2022-11-19T11:05:02.912Z,1.50
2022-11-19T11:07:50.462Z,1.87
2022-11-19T11:10:37.125Z,2.57
2022-11-19T11:13:33.714Z,4.43
2022-11-19T11:16:11.002Z,2.93
2022-11-19T11:18:40.523Z,2.20
2022-11-19T11:21:12.684Z,2.70
2022-11-19T11:23:52.047Z,1.73
2022-11-19T11:26:23.646Z,3.63
2022-11-19T11:29:02.931Z,1.80
2022-11-19T11:31:38.181Z,1.77
2022-11-19T11:34:07.475Z,1.80
2022-11-19T11:36:38.026Z,1.10
2022-11-19T11:39:07.171Z,2.77
2022-11-19T11:42:05.556Z,2.57
2022-11-19T11:44:29.829Z,1.53
2022-11-19T11:47:02.691Z,2.67
2022-11-19T11:49:34.915Z,2.93
2022-11-19T11:52:19.086Z,5.70
2022-11-19T11:54:59.354Z,1.63
2022-11-19T11:57:29.279Z,2.27
2022-11-19T11:59:57.553Z,2.93
2022-11-19T12:02:30.820Z,2.20
2022-11-19T12:05:02.304Z,1.70
2022-11-19T12:07:56.075Z,1.50
2022-11-19T12:10:34.938Z,2.23
2022-11-19T12:13:31.839Z,1.70
2022-11-19T12:16:07.920Z,3.40
2022-11-19T12:18:46.923Z,3.90
2022-11-19T12:21:27.047Z,2.87
2022-11-19T12:24:08.903Z,5.90
2022-11-19T12:26:44.910Z,2.87
2022-11-19T12:29:21.724Z,3.17
2022-11-19T12:32:15.024Z,3.30
2022-11-19T12:35:09.917Z,7.07
2022-11-19T12:38:03.999Z,8.00
2022-11-19T12:40:42.812Z,5.30
2022-11-19T12:43:29.747Z,4.27
2022-11-19T12:46:07.182Z,4.00
2022-11-19T12:48:55.578Z,4.00
2022-11-19T12:51:37.616Z,1.73
2022-11-19T12:54:33.369Z,2.43
2022-11-19T12:57:19.320Z,1.97
2022-11-19T13:00:05.150Z,1.90
2022-11-19T13:02:40.471Z,2.53
2022-11-19T13:05:16.032Z,2.57
2022-11-19T13:07:50.607Z,4.67
2022-11-19T13:10:23.612Z,4.27
2022-11-19T13:12:55.576Z,6.37
2022-11-19T13:15:29.084Z,4.70
2022-11-19T13:17:59.640Z,4.27
2022-11-19T13:20:41.507Z,3.90
2022-11-19T13:23:18.593Z,4.20
2022-11-19T13:25:51.362Z,6.97
2022-11-19T13:28:24.410Z,3.73
2022-11-19T13:30:55.038Z,2.90
2022-11-19T13:33:27.906Z,4.67
2022-11-19T13:36:03.726Z,2.03
2022-11-19T13:38:44.540Z,2.17
2022-11-19T13:41:16.674Z,4.07
2022-11-19T13:44:03.295Z,2.50
2022-11-19T13:46:36.493Z,1.40
2022-11-19T13:49:08.882Z,2.20
2022-11-19T13:51:40.860Z,4.50
2022-11-19T13:54:19.650Z,4.47
2022-11-19T13:56:50.170Z,4.47
2022-11-19T13:59:44.333Z,3.10
2022-11-19T14:02:45.994Z,3.43
2022-11-19T14:05:33.847Z,2.17
2022-11-19T14:08:15.759Z,2.57
2022-11-19T14:10:57.934Z,3.70
2022-11-19T14:13:43.019Z,9.03
2022-11-19T14:16:39.202Z,6.27
2022-11-19T14:19:31.518Z,3.27
2022-11-19T14:22:18.419Z,5.03
2022-11-19T14:25:15.029Z,4.30
2022-11-19T14:27:45.238Z,4.57
2022-11-19T14:30:15.753Z,7.83
2022-11-19T14:32:47.547Z,5.80
2022-11-19T14:35:42.778Z,5.57
2022-11-19T14:38:39.417Z,6.23
2022-11-19T14:41:28.715Z,5.57
2022-11-19T14:44:11.025Z,8.60
2022-11-19T14:46:41.341Z,5.57
2022-11-19T14:49:30.347Z,7.33
2022-11-19T14:51:58.742Z,6.23
2022-11-19T14:54:39.886Z,4.57
2022-11-19T14:57:16.751Z,4.70
2022-11-19T14:59:52.657Z,3.97
2022-11-19T15:02:26.849Z,5.37
2022-11-19T15:05:08.414Z,4.83
2022-11-19T15:07:42.773Z,5.93
2022-11-19T15:10:33.707Z,6.57
2022-11-19T15:13:20.937Z,9.63
2022-11-19T15:15:53.924Z,12.07
2022-11-19T15:18:51.343Z,4.10
2022-11-19T15:21:38.925Z,3.97
2022-11-19T15:24:17.243Z,4.37
2022-11-19T15:26:55.986Z,4.97
2022-11-19T15:29:38.574Z,4.27
2022-11-19T15:32:19.854Z,5.97
2022-11-19T15:35:16.006Z,5.23
2022-11-19T15:37:48.299Z,3.90
2022-11-19T15:40:20.508Z,6.90
2022-11-19T15:42:54.069Z,8.20
2022-11-19T15:45:24.685Z,4.60
2022-11-19T15:47:58.178Z,4.50
2022-11-19T15:50:28.984Z,5.33
2022-11-19T15:53:01.458Z,5.77
2022-11-19T15:55:30.914Z,6.10
2022-11-19T15:58:02.865Z,7.60
2022-11-19T16:00:30.762Z,7.43
2022-11-19T16:03:01.901Z,8.07
2022-11-19T16:05:32.686Z,10.13
2022-11-19T16:08:06.201Z,7.07
2022-11-19T16:10:36.689Z,7.63
2022-11-19T16:13:38.940Z,7.43
2022-11-19T16:16:39.116Z,15.37
2022-11-19T16:19:08.334Z,8.73
2022-11-19T16:21:39.905Z,8.27
2022-11-19T16:24:31.786Z,8.37
2022-11-19T16:27:01.057Z,12.60
2022-11-19T16:29:29.565Z,8.40
2022-11-19T16:32:00.569Z,15.80
2022-11-19T16:34:32.262Z,10.57
2022-11-19T16:37:00.772Z,10.43
2022-11-19T16:39:31.653Z,8.40
2022-11-19T16:42:17.880Z,8.33
2022-11-19T16:44:47.403Z,14.33
2022-11-19T16:47:22.046Z,8.97
2022-11-19T16:50:01.195Z,9.10
2022-11-19T16:52:40.247Z,9.03
2022-11-19T16:55:42.789Z,9.03
2022-11-19T16:58:20.129Z,9.87
2022-11-19T17:00:51.004Z,8.70
2022-11-19T17:03:29.840Z,9.53
2022-11-19T17:05:59.917Z,11.47
2022-11-19T17:08:30.211Z,11.63
2022-11-19T17:11:36.748Z,10.07
2022-11-19T17:14:19.054Z,8.70
2022-11-19T17:16:48.728Z,9.57
2022-11-19T17:19:27.048Z,10.03
2022-11-19T17:22:00.727Z,12.27
2022-11-19T17:24:32.665Z,17.17
2022-11-19T17:27:00.850Z,15.37
2022-11-19T17:29:28.884Z,14.33
2022-11-19T17:31:57.443Z,11.97
2022-11-19T17:34:31.923Z,12.27
2022-11-19T17:37:01.363Z,9.90
2022-11-19T17:39:29.304Z,10.80
2022-11-19T17:42:15.397Z,9.07
2022-11-19T17:44:43.462Z,10.90
2022-11-19T17:47:24.540Z,11.17
2022-11-19T17:49:53.462Z,14.87
2022-11-19T17:52:24.854Z,15.37
2022-11-19T17:54:54.814Z,12.43
2022-11-19T17:57:22.938Z,13.63
2022-11-19T17:59:50.885Z,12.77
2022-11-19T18:02:20.884Z,10.73
2022-11-19T18:04:50.504Z,12.33
2022-11-19T18:07:18.429Z,13.47
2022-11-19T18:09:47.678Z,11.93
2022-11-19T18:12:18.435Z,12.43
2022-11-19T18:14:47.280Z,10.10
2022-11-19T18:17:16.600Z,12.03
2022-11-19T18:19:44.504Z,11.57
2022-11-19T18:22:19.010Z,12.97
2022-11-19T18:24:50.130Z,10.60
2022-11-19T18:27:18.233Z,9.57
2022-11-19T18:29:46.084Z,11.83
2022-11-19T18:32:16.625Z,10.17
2022-11-19T18:34:45.244Z,11.67
2022-11-19T18:37:13.490Z,9.87
2022-11-19T18:39:41.398Z,10.00
2022-11-19T18:42:11.754Z,11.87
2022-11-19T18:44:41.551Z,10.67
2022-11-19T18:47:11.768Z,12.03
2022-11-19T18:49:40.194Z,12.20
2022-11-19T18:52:10.076Z,9.73
2022-11-19T18:54:38.654Z,11.10
2022-11-19T18:57:06.553Z,11.67
2022-11-19T18:59:35.744Z,10.07
2022-11-19T19:02:03.720Z,10.57
2022-11-19T19:04:31.775Z,7.27
2022-11-19T19:06:59.774Z,7.13
2022-11-19T19:09:27.709Z,7.90
2022-11-19T19:12:13.988Z,10.57
2022-11-19T19:14:43.749Z,10.93
2022-11-19T19:17:12.483Z,9.87
2022-11-19T19:19:40.635Z,12.63
2022-11-19T19:22:09.220Z,10.77
2022-11-19T19:24:37.166Z,10.53
2022-11-19T19:27:05.494Z,11.80
2022-11-19T19:29:33.640Z,10.03
2022-11-19T19:32:02.950Z,9.73
2022-11-19T19:34:31.079Z,11.63
2022-11-19T19:36:59.212Z,10.37
2022-11-19T19:39:27.106Z,10.27
2022-11-19T19:41:55.181Z,10.47
2022-11-19T19:44:23.228Z,14.63
2022-11-19T19:46:51.481Z,9.50
2022-11-19T19:49:21.155Z,10.00
2022-11-19T19:51:50.857Z,9.10
2022-11-19T19:54:18.850Z,8.77
2022-11-19T19:56:46.795Z,8.57
2022-11-19T19:59:15.142Z,9.50
2022-11-19T20:01:47.278Z,11.03
2022-11-19T20:04:15.268Z,9.73
2022-11-19T20:06:47.636Z,7.97
2022-11-19T20:09:15.714Z,10.03
2022-11-19T20:11:43.636Z,9.37
2022-11-19T20:14:12.171Z,11.60
2022-11-19T20:16:41.626Z,8.43
2022-11-19T20:19:12.720Z,7.33
2022-11-19T20:21:40.740Z,8.03
2022-11-19T20:24:12.619Z,8.67
2022-11-19T20:26:42.914Z,9.03
2022-11-19T20:29:13.396Z,10.40
2022-11-19T20:31:42.183Z,9.60
2022-11-19T20:34:12.771Z,7.53
2022-11-19T20:36:40.677Z,8.57
2022-11-19T20:39:10.480Z,10.10
2022-11-19T20:41:56.062Z,10.93
2022-11-19T20:44:24.074Z,8.83
2022-11-19T20:46:53.427Z,8.53
2022-11-19T20:49:23.476Z,10.87
2022-11-19T20:51:52.658Z,10.67
2022-11-19T20:54:22.587Z,9.07
2022-11-19T20:56:51.760Z,9.50
2022-11-19T20:59:20.296Z,10.70
2022-11-19T21:01:49.394Z,10.43
2022-11-19T21:04:17.637Z,9.90
2022-11-19T21:06:45.746Z,8.77
2022-11-19T21:09:14.823Z,9.87
2022-11-19T21:11:44.796Z,8.80
2022-11-19T21:14:12.809Z,9.90
2022-11-19T21:16:40.929Z,11.70
2022-11-19T21:19:10.165Z,9.37
2022-11-19T21:21:38.440Z,9.00
2022-11-19T21:24:07.161Z,10.27
2022-11-19T21:26:35.124Z,11.30
2022-11-19T21:29:04.591Z,9.33
2022-11-19T21:31:41.924Z,11.00
2022-11-19T21:34:11.919Z,11.93
2022-11-19T21:36:40.623Z,12.37
2022-11-19T21:39:09.304Z,11.10
2022-11-19T21:41:37.428Z,9.37
2022-11-19T21:44:07.020Z,9.50
2022-11-19T21:46:35.604Z,7.57
2022-11-19T21:49:03.724Z,9.60
2022-11-19T21:51:31.635Z,8.97
2022-11-19T21:54:00.283Z,13.00
2022-11-19T21:56:33.790Z,8.30
2022-11-19T21:59:06.538Z,7.77
2022-11-19T22:01:34.414Z,7.97
2022-11-19T22:04:02.301Z,10.17
2022-11-19T22:06:31.187Z,9.40
2022-11-19T22:08:59.120Z,9.97
2022-11-19T22:11:29.844Z,10.23
2022-11-19T22:13:59.466Z,8.20
2022-11-19T22:16:29.420Z,10.93
2022-11-19T22:18:57.414Z,11.23
2022-11-19T22:21:26.576Z,13.63
2022-11-19T22:23:54.447Z,8.77
2022-11-19T22:26:22.405Z,10.97
2022-11-19T22:28:50.467Z,13.50
2022-11-19T22:31:18.365Z,11.77
2022-11-19T22:33:51.354Z,13.63
2022-11-19T22:36:20.493Z,10.73
2022-11-19T22:38:48.493Z,10.00
2022-11-19T22:41:18.141Z,10.30
2022-11-19T22:43:46.137Z,11.13
2022-11-19T22:46:15.224Z,11.57
2022-11-19T22:48:43.158Z,10.37
2022-11-19T22:51:14.892Z,10.70
2022-11-19T22:53:43.397Z,10.37
2022-11-19T22:56:13.480Z,9.87
2022-11-19T22:58:41.374Z,10.67
2022-11-19T23:01:15.386Z,13.87
2022-11-19T23:03:43.410Z,14.07
2022-11-19T23:06:12.632Z,10.77
2022-11-19T23:08:40.521Z,10.37
2022-11-19T23:11:09.308Z,11.47
2022-11-19T23:13:38.979Z,13.90
2022-11-19T23:16:09.139Z,14.07
2022-11-19T23:18:39.278Z,12.63
2022-11-19T23:21:09.463Z,12.17
2022-11-19T23:23:38.826Z,12.17
2022-11-19T23:26:08.524Z,11.90
2022-11-19T23:28:37.815Z,11.67
2022-11-19T23:31:07.310Z,11.37
2022-11-19T23:33:35.192Z,11.77
2022-11-19T23:36:04.305Z,13.03
2022-11-19T23:38:32.379Z,12.70
2022-11-19T23:41:02.184Z,14.23
2022-11-19T23:43:30.642Z,13.97
2022-11-19T23:46:05.571Z,14.57
2022-11-19T23:48:34.103Z,14.30
2022-11-19T23:51:03.027Z,17.27
2022-11-19T23:53:31.048Z,16.33
2022-11-19T23:55:59.032Z,12.80
2022-11-19T23:58:28.297Z,14.30
